Time;durP1;ratioP1;P1;durP2;ratioP2;P2;SDS_P1;SDS_P2;PMS_P1;PMS_P2;Temp;Humidity;BMP_temperature;BMP_pressure;BME280_temperature;BME280_humidity;BME280_pressure;Samples;Min_cycle;Max_cycle;Signal;HPM_P1;HPM_P2
2023/04/07 00:01:54;;;;;;;6.80;3.42;;;;;;;;;;6177880;23;20104;-61
2023/04/07 00:04:29;;;;;;;6.90;3.65;;;;;;;;;;6176645;23;20025;-60
2023/04/07 00:06:56;;;;;;;;;;;;;;;;;;6177771;23;20566;-59
2023/04/07 00:09:36;;;;;;;5.57;3.30;;;;;;;;;;6178939;23;20408;-60
2023/04/07 00:12:04;;;;;;;8.38;4.10;;;;;;;;;;6176766;23;20538;-60
2023/04/07 00:14:37;;;;;;;9.02;3.53;;;;;;;;;;6178907;23;20486;-52
2023/04/07 00:17:04;;;;;;;6.72;3.60;;;;;;;;;;6177228;23;20056;-50
2023/04/07 00:19:32;;;;;;;7.78;4.25;;;;;;;;;;6177978;23;20104;-51
2023/04/07 00:22:06;;;;;;;7.85;4.45;;;;;;;;;;6178587;23;20499;-53
2023/04/07 00:24:33;;;;;;;9.20;4.13;;;;;;;;;;6181051;23;20024;-61
2023/04/07 00:27:07;;;;;;;10.02;4.35;;;;;;;;;;6177890;23;20475;-71
2023/04/07 00:29:34;;;;;;;6.22;4.22;;;;;;;;;;6179907;23;20640;-72
2023/04/07 00:32:02;;;;;;;7.63;3.92;;;;;;;;;;6179005;23;20025;-72
2023/04/07 00:34:42;;;;;;;7.60;4.13;;;;;;;;;;6179241;23;20107;-71
2023/04/07 00:37:09;;;;;;;7.80;4.30;;;;;;;;;;6179187;23;20072;-72
2023/04/07 00:39:43;;;;;;;7.30;4.10;;;;;;;;;;6179378;23;20525;-73
2023/04/07 00:42:17;;;;;;;9.63;4.20;;;;;;;;;;6153069;23;20025;-60
2023/04/07 00:44:51;;;;;;;11.02;4.30;;;;;;;;;;6179665;23;20021;-60
2023/04/07 00:47:19;;;;;;;8.23;4.38;;;;;;;;;;6179518;23;20028;-61
2023/04/07 00:49:46;;;;;;;10.32;4.88;;;;;;;;;;6178242;23;20029;-61
2023/04/07 00:52:27;;;;;;;8.65;4.50;;;;;;;;;;6179438;23;20047;-58
2023/04/07 00:54:55;;;;;;;7.38;3.97;;;;;;;;;;6180497;23;20064;-71
2023/04/07 00:57:28;;;;;;;7.88;4.10;;;;;;;;;;6179648;23;20057;-71
2023/04/07 00:59:56;;;;;;;8.57;4.78;;;;;;;;;;6179202;23;20023;-73
2023/04/07 01:02:30;;;;;;;10.25;4.40;;;;;;;;;;6178581;23;20108;-72
2023/04/07 01:05:04;;;;;;;8.30;4.15;;;;;;;;;;6177855;23;20023;-72
2023/04/07 01:07:54;;;;;;;14.20;5.20;;;;;;;;;;6178905;23;20021;-71
2023/04/07 01:10:37;;;;;;;10.75;4.93;;;;;;;;;;6179382;23;20451;-54
2023/04/07 01:13:40;;;;;;;13.52;5.18;;;;;;;;;;6178562;23;20033;-53
2023/04/07 01:16:19;;;;;;;10.27;5.15;;;;;;;;;;6029809;23;20122;-52
2023/04/07 01:18:47;;;;;;;13.57;4.90;;;;;;;;;;6163733;23;20083;-55
2023/04/07 01:21:22;;;;;;;12.55;5.20;;;;;;;;;;6179354;23;20394;-73
2023/04/07 01:24:07;;;;;;;12.82;5.35;;;;;;;;;;6179428;23;20100;-55
2023/04/07 01:26:41;;;;;;;10.57;4.53;;;;;;;;;;6177116;23;20104;-50
2023/04/07 01:29:30;;;;;;;11.50;5.38;;;;;;;;;;6178126;23;20095;-51
2023/04/07 01:32:06;;;;;;;13.18;4.90;;;;;;;;;;6178451;23;20100;-51
2023/04/07 01:34:35;;;;;;;10.30;5.10;;;;;;;;;;6177791;23;20530;-52
2023/04/07 01:37:09;;;;;;;9.48;5.25;;;;;;;;;;6178352;23;20036;-54
2023/04/07 01:39:37;;;;;;;12.30;5.80;;;;;;;;;;6180515;23;20790;-62
2023/04/07 01:42:05;;;;;;;10.38;5.13;;;;;;;;;;6178340;23;20056;-62
2023/04/07 01:44:40;;;;;;;14.65;5.32;;;;;;;;;;6178397;23;20032;-61
2023/04/07 01:47:07;;;;;;;13.32;5.43;;;;;;;;;;6177248;23;20072;-61
2023/04/07 01:49:43;;;;;;;11.25;5.13;;;;;;;;;;6178176;23;20032;-60
2023/04/07 01:52:11;;;;;;;10.88;5.45;;;;;;;;;;6179219;23;20100;-60
2023/04/07 01:54:38;;;;;;;9.40;5.45;;;;;;;;;;6153777;23;20027;-61
2023/04/07 01:57:12;;;;;;;16.50;6.30;;;;;;;;;;6177903;23;20528;-58
2023/04/07 01:59:39;;;;;;;14.95;6.55;;;;;;;;;;6178395;23;20028;-59
2023/04/07 02:02:14;;;;;;;15.85;6.25;;;;;;;;;;6177837;23;20095;-58
2023/04/07 02:05:02;;;;;;;13.68;5.68;;;;;;;;;;6179205;23;20271;-61
2023/04/07 02:07:52;;;;;;;15.40;5.45;;;;;;;;;;6178685;23;20466;-52
2023/04/07 02:10:21;;;;;;;12.57;5.53;;;;;;;;;;6175813;23;20087;-54
2023/04/07 02:12:55;;;;;;;12.00;5.70;;;;;;;;;;6179848;23;20020;-53
2023/04/07 02:15:33;;;;;;;15.40;5.93;;;;;;;;;;6176500;23;20470;-56
2023/04/07 02:18:09;;;;;;;;;;;;;;;;;;6177064;23;20108;-60
2023/04/07 02:20:37;;;;;;;12.77;5.47;;;;;;;;;;6178936;23;19951;-60
2023/04/07 02:23:04;;;;;;;9.57;5.50;;;;;;;;;;6178807;23;20081;-60
2023/04/07 02:25:38;;;;;;;16.98;5.85;;;;;;;;;;6177199;23;20028;-60
2023/04/07 02:28:06;;;;;;;14.65;5.72;;;;;;;;;;6178561;23;20036;-60
2023/04/07 02:30:39;;;;;;;11.18;5.18;;;;;;;;;;6178162;23;20104;-60
2023/04/07 02:33:06;;;;;;;11.18;5.45;;;;;;;;;;6177567;23;20104;-61
2023/04/07 02:35:36;;;;;;;13.98;6.20;;;;;;;;;;6178418;23;20021;-57
2023/04/07 02:38:10;;;;;;;21.90;6.75;;;;;;;;;;6177899;23;20096;-54
2023/04/07 02:40:37;;;;;;;11.85;5.57;;;;;;;;;;6178534;23;20052;-51
2023/04/07 02:43:05;;;;;;;16.05;6.13;;;;;;;;;;6177894;23;20965;-49
2023/04/07 02:45:38;;;;;;;9.57;5.38;;;;;;;;;;6178445;23;20057;-51
2023/04/07 02:48:05;;;;;;;11.73;6.53;;;;;;;;;;6177437;23;20548;-61
2023/04/07 02:50:40;;;;;;;13.13;6.10;;;;;;;;;;6178887;23;20057;-61
2023/04/07 02:53:08;;;;;;;14.00;5.80;;;;;;;;;;6151993;23;20059;-60
2023/04/07 02:55:35;;;;;;;11.80;6.43;;;;;;;;;;6177281;23;20059;-59
2023/04/07 02:58:08;;;;;;;15.85;6.03;;;;;;;;;;6176918;23;20027;-61
2023/04/07 03:00:36;;;;;;;12.55;5.97;;;;;;;;;;6178396;23;20021;-61
2023/04/07 03:03:03;;;;;;;16.27;7.35;;;;;;;;;;6177627;23;20029;-61
2023/04/07 03:05:36;;;;;;;12.38;6.32;;;;;;;;;;6178981;23;20808;-60
2023/04/07 03:08:16;;;;;;;12.90;5.93;;;;;;;;;;6177247;23;20076;-61
2023/04/07 03:10:50;;;;;;;16.30;6.40;;;;;;;;;;6177336;23;20061;-60
2023/04/07 03:13:18;;;;;;;13.77;6.32;;;;;;;;;;6178297;23;20024;-60
2023/04/07 03:15:46;;;;;;;14.55;6.72;;;;;;;;;;6177043;23;20104;-61
2023/04/07 03:18:19;;;;;;;24.70;7.03;;;;;;;;;;6176834;23;20056;-55
2023/04/07 03:20:47;;;;;;;11.43;6.53;;;;;;;;;;6179397;23;20096;-51
2023/04/07 03:23:22;;;;;;;12.13;6.50;;;;;;;;;;6178146;23;20021;-53
2023/04/07 03:25:50;;;;;;;11.50;5.50;;;;;;;;;;6177396;23;20347;-52
2023/04/07 03:28:17;;;;;;;12.98;5.15;;;;;;;;;;6178884;23;20405;-50
2023/04/07 03:30:50;;;;;;;10.02;4.97;;;;;;;;;;6177552;23;20671;-50
2023/04/07 03:33:17;;;;;;;10.95;5.47;;;;;;;;;;6177898;23;20467;-60
2023/04/07 03:35:51;;;;;;;11.15;5.22;;;;;;;;;;6177007;23;20047;-60
2023/04/07 03:38:20;;;;;;;12.68;6.10;;;;;;;;;;6177845;23;20025;-60
2023/04/07 03:40:47;;;;;;;10.82;5.30;;;;;;;;;;6178050;23;20466;-60
2023/04/07 03:43:21;;;;;;;9.52;5.32;;;;;;;;;;6178097;23;20021;-60
2023/04/07 03:45:49;;;;;;;15.48;6.45;;;;;;;;;;6177394;23;20100;-61
2023/04/07 03:48:24;;;;;;;10.60;5.25;;;;;;;;;;6178529;23;20017;-61
2023/04/07 03:50:52;;;;;;;10.73;5.10;;;;;;;;;;6178206;23;20545;-61
2023/04/07 03:53:20;;;;;;;11.25;6.05;;;;;;;;;;6176808;23;20087;-61
2023/04/07 03:55:53;;;;;;;10.70;6.00;;;;;;;;;;6177573;23;20101;-61
2023/04/07 03:58:20;;;;;;;12.77;6.20;;;;;;;;;;6180179;23;20565;-61
2023/04/07 04:00:58;;;;;;;11.10;5.82;;;;;;;;;;6179718;23;20045;-60
2023/04/07 04:03:25;;;;;;;11.50;5.57;;;;;;;;;;6180320;23;20401;-61
2023/04/07 04:05:52;;;;;;;;;;;;;;;;;;6179747;23;20027;-61
2023/04/07 04:08:39;;;;;;;9.98;5.47;;;;;;;;;;6178504;23;20387;-61
2023/04/07 04:11:13;;;;;;;10.00;5.35;;;;;;;;;;6178316;23;20025;-60
2023/04/07 04:13:40;;;;;;;10.30;5.50;;;;;;;;;;6179268;23;20077;-72
2023/04/07 04:16:08;;;;;;;11.43;5.70;;;;;;;;;;6179813;23;20104;-54
2023/04/07 04:18:41;;;;;;;11.82;5.50;;;;;;;;;;6180044;23;20036;-54
2023/04/07 04:21:09;;;;;;;11.38;5.15;;;;;;;;;;6153856;23;20537;-56
2023/04/07 04:23:42;;;;;;;11.07;5.40;;;;;;;;;;6177933;23;20052;-53
2023/04/07 04:26:09;;;;;;;13.15;5.20;;;;;;;;;;6177759;23;20399;-51
2023/04/07 04:28:37;;;;;;;8.98;5.40;;;;;;;;;;6179290;23;20049;-55
2023/04/07 04:31:10;;;;;;;12.73;6.85;;;;;;;;;;6180269;23;20573;-60
2023/04/07 04:33:38;;;;;;;12.50;7.50;;;;;;;;;;6179836;23;20021;-61
2023/04/07 04:36:12;;;;;;;12.93;6.20;;;;;;;;;;6179188;23;20714;-61
2023/04/07 04:38:39;;;;;;;11.95;6.28;;;;;;;;;;6178967;23;20049;-60
2023/04/07 04:41:06;;;;;;;12.32;6.13;;;;;;;;;;6178920;23;20108;-51
2023/04/07 04:43:40;;;;;;;14.18;6.43;;;;;;;;;;6179850;23;20108;-55
2023/04/07 04:46:08;;;;;;;9.43;4.72;;;;;;;;;;6178761;23;20079;-51
2023/04/07 04:48:41;;;;;;;11.82;5.38;;;;;;;;;;6179277;23;20107;-51
2023/04/07 04:51:09;;;;;;;9.10;5.13;;;;;;;;;;6179865;23;20052;-49
2023/04/07 04:53:36;;;;;;;9.13;5.13;;;;;;;;;;6177614;23;20025;-49
2023/04/07 04:56:10;;;;;;;10.63;5.40;;;;;;;;;;6179161;23;20025;-52
2023/04/07 04:58:39;;;;;;;12.20;5.15;;;;;;;;;;6180170;23;20031;-58
2023/04/07 05:01:13;;;;;;;9.23;5.90;;;;;;;;;;6179321;23;20052;-58
2023/04/07 05:03:40;;;;;;;10.18;5.68;;;;;;;;;;6178006;23;20035;-60
2023/04/07 05:06:07;;;;;;;11.95;6.50;;;;;;;;;;6179359;23;20025;-59
2023/04/07 05:08:55;;;;;;;10.38;5.50;;;;;;;;;;6176469;23;20056;-59
2023/04/07 05:11:29;;;;;;;9.98;4.13;;;;;;;;;;6179829;23;20100;-54
2023/04/07 05:14:03;;;;;;;12.25;6.03;;;;;;;;;;6178860;23;20029;-51
2023/04/07 05:16:30;;;;;;;10.75;5.53;;;;;;;;;;6179601;23;20040;-49
2023/04/07 05:18:58;;;;;;;12.55;5.55;;;;;;;;;;6178033;23;20025;-51
2023/04/07 05:21:31;;;;;;;11.68;5.95;;;;;;;;;;6179106;23;20032;-49
2023/04/07 05:23:58;;;;;;;9.73;5.20;;;;;;;;;;6177534;23;20557;-48
2023/04/07 05:26:35;;;;;;;12.60;5.55;;;;;;;;;;6180457;23;20140;-51
2023/04/07 05:29:02;;;;;;;9.73;5.50;;;;;;;;;;6176951;23;20025;-53
2023/04/07 05:31:29;;;;;;;9.90;5.40;;;;;;;;;;6179321;23;20026;-50
2023/04/07 05:34:03;;;;;;;12.60;5.88;;;;;;;;;;6177012;23;20021;-51
2023/04/07 05:36:30;;;;;;;9.18;4.90;;;;;;;;;;6179963;23;20029;-61
2023/04/07 05:39:05;;;;;;;13.23;4.55;;;;;;;;;;6177798;23;20021;-59
2023/04/07 05:41:32;;;;;;;;;;;;;;;;;;6179694;23;20598;-50
2023/04/07 05:43:59;;;;;;;7.57;4.38;;;;;;;;;;6178291;23;19987;-51
2023/04/07 05:46:32;;;;;;;10.63;4.57;;;;;;;;;;6177934;23;20040;-52
2023/04/07 05:49:00;;;;;;;11.60;5.25;;;;;;;;;;6178161;23;20486;-53
2023/04/07 05:51:39;;;;;;;8.80;4.93;;;;;;;;;;6179114;23;20025;-51
2023/04/07 05:54:06;;;;;;;;;;;;;;;;;;6179222;23;20354;-52
2023/04/07 05:56:40;;;;;;;13.25;4.85;;;;;;;;;;6178963;23;20002;-51
2023/04/07 05:59:08;;;;;;;8.70;5.28;;;;;;;;;;6178354;23;20099;-53
2023/04/07 06:01:35;;;;;;;8.82;5.30;;;;;;;;;;6179456;23;20027;-52
2023/04/07 06:04:09;;;;;;;8.70;4.65;;;;;;;;;;6178149;23;20048;-52
2023/04/07 06:06:37;;;;;;;7.43;4.40;;;;;;;;;;6179139;23;20032;-61
2023/04/07 06:09:17;;;;;;;8.55;5.25;;;;;;;;;;6176478;23;20100;-60
2023/04/07 06:11:45;;;;;;;8.50;4.72;;;;;;;;;;6178934;23;20048;-59
2023/04/07 06:14:19;;;;;;;7.97;4.60;;;;;;;;;;6177839;23;20131;-60
2023/04/07 06:16:53;;;;;;;8.40;5.40;;;;;;;;;;6175098;23;20071;-60
2023/04/07 06:19:21;;;;;;;7.70;4.95;;;;;;;;;;6171830;23;20509;-59
2023/04/07 06:21:48;;;;;;;9.65;4.72;;;;;;;;;;6174069;23;20100;-60
2023/04/07 06:24:24;;;;;;;10.07;5.10;;;;;;;;;;6176893;23;20112;-61
2023/04/07 06:26:55;;;;;;;8.70;5.03;;;;;;;;;;6175747;23;20041;-59
2023/04/07 06:29:30;;;;;;;11.68;4.40;;;;;;;;;;6174736;23;20107;-60
2023/04/07 06:31:57;;;;;;;10.15;4.85;;;;;;;;;;6176009;23;20033;-60
2023/04/07 06:34:24;;;;;;;9.40;4.45;;;;;;;;;;6177367;23;20413;-61
2023/04/07 06:36:58;;;;;;;10.65;4.70;;;;;;;;;;6175744;23;20021;-61
2023/04/07 06:39:26;;;;;;;9.07;3.85;;;;;;;;;;6176293;23;20023;-60
2023/04/07 06:41:53;;;;;;;6.28;4.00;;;;;;;;;;6178261;23;20045;-63
2023/04/07 06:44:27;;;;;;;10.05;3.92;;;;;;;;;;6176925;23;20028;-62
2023/04/07 06:46:55;;;;;;;5.88;3.85;;;;;;;;;;6177685;23;20112;-63
2023/04/07 06:49:28;;;;;;;7.43;3.88;;;;;;;;;;6178627;23;20021;-63
2023/04/07 06:51:56;;;;;;;6.30;3.72;;;;;;;;;;6176459;23;20257;-59
2023/04/07 06:54:23;;;;;;;7.60;3.72;;;;;;;;;;6177255;23;20021;-57
2023/04/07 06:56:56;;;;;;;5.82;3.30;;;;;;;;;;6175968;23;20031;-56
2023/04/07 06:59:23;;;;;;;9.27;3.45;;;;;;;;;;6175818;23;20031;-58
2023/04/07 07:01:58;;;;;;;6.50;3.58;;;;;;;;;;6178314;23;20017;-58
2023/04/07 07:04:25;;;;;;;;;;;;;;;;;;6174810;23;20087;-58
2023/04/07 07:06:54;;;;;;;5.15;3.05;;;;;;;;;;6175516;23;19927;-59
2023/04/07 07:09:35;;;;;;;7.22;3.90;;;;;;;;;;6178290;23;20100;-58
2023/04/07 07:12:09;;;;;;;6.88;3.33;;;;;;;;;;6175856;23;20108;-71
2023/04/07 07:14:42;;;;;;;7.25;3.60;;;;;;;;;;6175771;23;20103;-69
2023/04/07 07:17:09;;;;;;;5.03;3.40;;;;;;;;;;6174985;23;20035;-68
2023/04/07 07:19:37;;;;;;;6.30;2.88;;;;;;;;;;6176537;23;20352;-69
2023/04/07 07:22:11;;;;;;;4.68;3.08;;;;;;;;;;6174894;23;20352;-58
2023/04/07 07:24:38;;;;;;;6.72;2.95;;;;;;;;;;6176089;23;20092;-58
2023/04/07 07:27:06;;;;;;;5.55;3.30;;;;;;;;;;6176713;23;20107;-59
2023/04/07 07:29:40;;;;;;;6.22;2.70;;;;;;;;;;6176043;23;20104;-58
2023/04/07 07:32:07;;;;;;;6.18;3.08;;;;;;;;;;6179701;23;20017;-58
2023/04/07 07:34:40;;;;;;;7.28;2.60;;;;;;;;;;6179562;23;20028;-59
2023/04/07 07:37:08;;;;;;;8.13;3.13;;;;;;;;;;6179493;23;20498;-58
2023/04/07 07:39:35;;;;;;;5.93;3.47;;;;;;;;;;6179314;23;20365;-51
2023/04/07 07:42:08;;;;;;;6.63;3.20;;;;;;;;;;6178585;23;20056;-47
2023/04/07 07:44:35;;;;;;;10.20;4.22;;;;;;;;;;6178590;23;20537;-52
2023/04/07 07:47:02;;;;;;;9.27;3.55;;;;;;;;;;6180635;23;20021;-47
2023/04/07 07:49:36;;;;;;;4.65;3.00;;;;;;;;;;6180166;23;20104;-59
2023/04/07 07:52:04;;;;;;;6.95;3.45;;;;;;;;;;6176854;23;20100;-58
2023/04/07 07:54:38;;;;;;;6.15;3.42;;;;;;;;;;6179359;23;20025;-58
2023/04/07 07:57:05;;;;;;;8.00;3.65;;;;;;;;;;6178030;23;20060;-59
2023/04/07 07:59:32;;;;;;;7.28;3.63;;;;;;;;;;6178050;23;20044;-58
2023/04/07 08:02:07;;;;;;;6.03;3.08;;;;;;;;;;6179125;23;20434;-59
2023/04/07 08:04:35;;;;;;;5.20;3.15;;;;;;;;;;6179203;23;20056;-59
2023/04/07 08:07:10;;;;;;;14.55;3.78;;;;;;;;;;6179267;23;20036;-59
2023/04/07 08:09:44;;;;;;;5.07;3.17;;;;;;;;;;6177930;23;20549;-60
2023/04/07 08:12:20;;;;;;;6.00;3.35;;;;;;;;;;6176601;23;20092;-59
2023/04/07 08:14:48;;;;;;;7.18;3.40;;;;;;;;;;6175141;23;20060;-59
2023/04/07 08:17:16;;;;;;;6.55;3.20;;;;;;;;;;6176788;23;20060;-54
2023/04/07 08:19:49;;;;;;;9.18;3.58;;;;;;;;;;6177845;23;20076;-51
2023/04/07 08:22:19;;;;;;;6.90;2.97;;;;;;;;;;6176590;23;20709;-59
2023/04/07 08:24:54;;;;;;;9.18;3.15;;;;;;;;;;6178753;23;20027;-60
2023/04/07 08:27:21;;;;;;;6.40;3.17;;;;;;;;;;6177920;23;20021;-59
2023/04/07 08:29:57;;;;;;;5.63;2.55;;;;;;;;;;6178336;23;20109;-59
2023/04/07 08:32:35;;;;;;;9.00;3.20;;;;;;;;;;6178162;23;20053;-60
2023/04/07 08:35:02;;;;;;;5.97;3.28;;;;;;;;;;6177635;23;20029;-59
2023/04/07 08:37:30;;;;;;;7.55;2.60;;;;;;;;;;6178742;23;20025;-59
2023/04/07 08:40:05;;;;;;;8.40;2.88;;;;;;;;;;6178841;23;20100;-60
2023/04/07 08:42:33;;;;;;;5.53;3.05;;;;;;;;;;6150718;23;20076;-59
2023/04/07 08:45:07;;;;;;;7.47;3.15;;;;;;;;;;6176221;23;20032;-59
2023/04/07 08:47:34;;;;;;;5.15;2.88;;;;;;;;;;6179204;23;20104;-59
2023/04/07 08:50:10;;;;;;;5.85;2.58;;;;;;;;;;6177871;23;20032;-59
2023/04/07 08:52:44;;;;;;;6.45;2.70;;;;;;;;;;6176544;23;20359;-59
2023/04/07 08:55:18;;;;;;;6.05;2.50;;;;;;;;;;6174362;23;20471;-60
2023/04/07 08:57:45;;;;;;;8.18;3.00;;;;;;;;;;6175560;23;20100;-59
2023/04/07 09:00:12;;;;;;;;;;;;;;;;;;6177376;23;20027;-59
2023/04/07 09:02:48;;;;;;;5.80;2.28;;;;;;;;;;6178366;23;19920;-60
2023/04/07 09:05:15;;;;;;;5.88;2.63;;;;;;;;;;6176249;23;20060;-59
2023/04/07 09:07:49;;;;;;;5.72;2.47;;;;;;;;;;6179041;23;20116;-59
2023/04/07 09:10:30;;;;;;;4.70;2.40;;;;;;;;;;6177951;23;20104;-59
2023/04/07 09:13:03;;;;;;;6.97;2.30;;;;;;;;;;6176742;23;20418;-58
2023/04/07 09:15:31;;;;;;;5.57;2.20;;;;;;;;;;6178679;23;20107;-59
2023/04/07 09:17:58;;;;;;;;;;;;;;;;;;6179798;23;20021;-57
2023/04/07 09:20:52;;;;;;;7.88;2.60;;;;;;;;;;6178433;23;19924;-56
2023/04/07 09:23:35;;;;;;;5.88;2.40;;;;;;;;;;6179700;23;20049;-56
2023/04/07 09:26:21;;;;;;;6.22;2.10;;;;;;;;;;6178802;23;20025;-57
2023/04/07 09:28:50;;;;;;;2.92;1.80;;;;;;;;;;6152698;23;20068;-57
2023/04/07 09:32:03;;;;;;;5.00;2.15;;;;;;;;;;6179428;23;20399;-56
2023/04/07 09:34:35;;;;;;;5.05;2.05;;;;;;;;;;6028724;23;20070;-52
2023/04/07 09:37:08;;;;;;;;;;;;;;;;;;6028335;23;20098;-50
2023/04/07 09:39:52;;;;;;;4.15;1.95;;;;;;;;;;6111746;23;19963;-49
2023/04/07 09:42:31;;;;;;;4.25;1.95;;;;;;;;;;6178353;23;20040;-52
2023/04/07 09:44:59;;;;;;;8.10;2.30;;;;;;;;;;6178539;23;20025;-60
2023/04/07 09:47:30;;;;;;;9.48;2.50;;;;;;;;;;6178882;23;20021;-53
2023/04/07 09:50:05;;;;;;;5.47;2.20;;;;;;;;;;6178852;23;20024;-51
2023/04/07 09:52:49;;;;;;;3.03;2.35;;;;;;;;;;6178931;23;20813;-50
2023/04/07 09:55:24;;;;;;;3.85;2.40;;;;;;;;;;6176022;23;20088;-49
2023/04/07 09:57:52;;;;;;;6.00;1.48;;;;;;;;;;6178109;23;20409;-50
2023/04/07 10:00:19;;;;;;;;;;;;;;;;;;6178433;23;20021;-50
2023/04/07 10:02:53;;;;;;;3.90;1.88;;;;;;;;;;6178499;23;19930;-59
2023/04/07 10:05:20;;;;;;;;;;;;;;;;;;6177844;23;20091;-60
2023/04/07 10:07:54;;;;;;;4.68;2.03;;;;;;;;;;6175734;23;19920;-60
2023/04/07 10:10:29;;;;;;;3.70;1.80;;;;;;;;;;6177910;23;20021;-59
2023/04/07 10:13:05;;;;;;;8.27;1.85;;;;;;;;;;6176400;23;20059;-54
2023/04/07 10:15:32;;;;;;;5.05;1.90;;;;;;;;;;6178263;23;20024;-71
2023/04/07 10:18:00;;;;;;;2.88;1.65;;;;;;;;;;6177294;23;20083;-73
2023/04/07 10:20:34;;;;;;;5.30;1.70;;;;;;;;;;6179558;23;20021;-71
2023/04/07 10:23:04;;;;;;;7.47;2.17;;;;;;;;;;6178618;23;20028;-71
2023/04/07 10:25:32;;;;;;;5.45;2.03;;;;;;;;;;6178372;23;20092;-71
2023/04/07 10:28:07;;;;;;;5.07;2.20;;;;;;;;;;6176081;23;20045;-72
2023/04/07 10:30:42;;;;;;;2.72;1.65;;;;;;;;;;6178766;23;20490;-60
2023/04/07 10:33:17;;;;;;;4.95;2.63;;;;;;;;;;6176806;23;20025;-59
2023/04/07 10:36:04;;;;;;;2.88;1.88;;;;;;;;;;6178213;23;20257;-59
2023/04/07 10:38:32;;;;;;;3.28;1.95;;;;;;;;;;6179642;23;20028;-59
2023/04/07 10:41:24;;;;;;;2.53;1.75;;;;;;;;;;6178219;23;20100;-60
2023/04/07 10:43:51;;;;;;;3.15;1.77;;;;;;;;;;6178243;23;20104;-72
2023/04/07 10:46:44;;;;;;;5.45;1.92;;;;;;;;;;6178981;23;20413;-72
2023/04/07 10:49:12;;;;;;;6.00;2.35;;;;;;;;;;6177529;23;20053;-72
2023/04/07 10:52:05;;;;;;;5.47;1.80;;;;;;;;;;6178572;23;20099;-73
2023/04/07 10:54:33;;;;;;;4.93;2.00;;;;;;;;;;6177625;23;20099;-72
2023/04/07 10:57:09;;;;;;;4.07;1.60;;;;;;;;;;6177025;23;20540;-72
2023/04/07 11:00:18;;;;;;;4.80;1.80;;;;;;;;;;6178687;23;20100;-60
2023/04/07 11:02:51;;;;;;;3.90;1.52;;;;;;;;;;6028452;23;20028;-60
2023/04/07 11:05:26;;;;;;;3.70;1.70;;;;;;;;;;6163941;23;20112;-60
2023/04/07 11:08:04;;;;;;;1.92;1.52;;;;;;;;;;6175649;23;20070;-51
2023/04/07 11:10:44;;;;;;;2.53;1.83;;;;;;;;;;6176000;23;20023;-59
2023/04/07 11:13:26;;;;;;;2.95;1.70;;;;;;;;;;6176942;23;20064;-60
2023/04/07 11:15:53;;;;;;;2.33;1.80;;;;;;;;;;6177814;23;20075;-60
2023/04/07 11:18:27;;;;;;;2.50;1.90;;;;;;;;;;6177303;23;20024;-60
2023/04/07 11:21:04;;;;;;;2.60;1.92;;;;;;;;;;6175519;23;20017;-60
2023/04/07 11:23:38;;;;;;;5.53;1.95;;;;;;;;;;6177088;23;20027;-60
2023/04/07 11:26:10;;;;;;;5.85;2.03;;;;;;;;;;6174515;23;20100;-55
2023/04/07 11:28:47;;;;;;;3.95;1.80;;;;;;;;;;6176875;23;20390;-59
2023/04/07 11:31:23;;;;;;;3.85;1.80;;;;;;;;;;6177378;23;20462;-59
2023/04/07 11:34:01;;;;;;;3.67;2.00;;;;;;;;;;6174774;23;20758;-60
2023/04/07 11:36:38;;;;;;;2.22;1.67;;;;;;;;;;6175214;23;20028;-61
2023/04/07 11:39:05;;;;;;;3.55;1.90;;;;;;;;;;6147083;23;20429;-72
2023/04/07 11:41:33;;;;;;;4.00;2.15;;;;;;;;;;6176194;23;20028;-49
2023/04/07 11:44:10;;;;;;;2.63;1.95;;;;;;;;;;6175300;23;20025;-48
2023/04/07 11:46:54;;;;;;;3.35;1.90;;;;;;;;;;6176059;23;20032;-47
2023/04/07 11:49:28;;;;;;;2.60;1.90;;;;;;;;;;6176308;23;20068;-50
2023/04/07 11:52:02;;;;;;;2.15;1.73;;;;;;;;;;6176249;23;20064;-50
2023/04/07 11:54:42;;;;;;;3.75;1.88;;;;;;;;;;6174741;23;20104;-60
2023/04/07 11:57:11;;;;;;;2.55;1.90;;;;;;;;;;6172644;23;20031;-59
2023/04/07 11:59:44;;;;;;;4.93;2.05;;;;;;;;;;6176438;23;20025;-59
2023/04/07 12:02:13;;;;;;;2.35;1.60;;;;;;;;;;6176162;23;20112;-60
2023/04/07 12:04:56;;;;;;;3.03;2.05;;;;;;;;;;6176420;23;20059;-59
2023/04/07 12:07:23;;;;;;;6.97;1.83;;;;;;;;;;6177285;23;20025;-50
2023/04/07 12:10:20;;;;;;;2.53;1.80;;;;;;;;;;6174647;23;20028;-56
2023/04/07 12:12:48;;;;;;;2.28;2.00;;;;;;;;;;6177078;23;20100;-54
2023/04/07 12:15:26;;;;;;;3.58;1.95;;;;;;;;;;6176746;23;20028;-57
2023/04/07 12:17:59;;;;;;;2.08;1.60;;;;;;;;;;6177001;23;20388;-57
2023/04/07 12:20:27;;;;;;;4.20;1.70;;;;;;;;;;6178110;23;20501;-57
2023/04/07 12:22:54;;;;;;;3.67;1.70;;;;;;;;;;6178545;23;20051;-56
2023/04/07 12:25:28;;;;;;;2.58;1.73;;;;;;;;;;6176941;23;20362;-56
2023/04/07 12:27:56;;;;;;;4.38;1.70;;;;;;;;;;6176999;23;20053;-56
2023/04/07 12:30:29;;;;;;;2.03;1.70;;;;;;;;;;6178961;23;20031;-55
2023/04/07 12:32:57;;;;;;;4.38;2.15;;;;;;;;;;6179021;23;20048;-55
2023/04/07 12:35:24;;;;;;;3.40;2.00;;;;;;;;;;6179135;23;20486;-59
2023/04/07 12:37:58;;;;;;;3.22;1.70;;;;;;;;;;6178554;23;20017;-51
2023/04/07 12:40:25;;;;;;;4.47;2.03;;;;;;;;;;6178697;23;20100;-51
2023/04/07 12:42:52;;;;;;;3.10;2.00;;;;;;;;;;6177562;23;20100;-50
2023/04/07 12:45:26;;;;;;;3.47;1.77;;;;;;;;;;6176889;23;20735;-51
2023/04/07 12:47:53;;;;;;;;;;;;;;;;;;6178672;23;20116;-50
2023/04/07 12:50:28;;;;;;;3.35;1.67;;;;;;;;;;6176524;23;19943;-51
2023/04/07 12:52:55;;;;;;;1.52;1.40;;;;;;;;;;6178931;23;20529;-54
2023/04/07 12:55:22;;;;;;;2.95;1.92;;;;;;;;;;6177187;23;20100;-55
2023/04/07 12:57:56;;;;;;;3.47;1.80;;;;;;;;;;6176894;23;20060;-57
2023/04/07 13:00:24;;;;;;;2.97;1.80;;;;;;;;;;6178884;23;20388;-57
2023/04/07 13:02:58;;;;;;;3.30;1.90;;;;;;;;;;6177536;23;20024;-59
2023/04/07 13:05:26;;;;;;;;;;;;;;;;;;6178509;23;20025;-55
2023/04/07 13:07:53;;;;;;;3.00;1.65;;;;;;;;;;6176985;23;20149;-56
2023/04/07 13:10:33;;;;;;;1.98;1.60;;;;;;;;;;6175367;23;20104;-57
2023/04/07 13:13:00;;;;;;;3.53;1.80;;;;;;;;;;6176834;23;20104;-57
2023/04/07 13:15:35;;;;;;;3.53;2.00;;;;;;;;;;6177221;23;20396;-54
2023/04/07 13:18:02;;;;;;;4.13;1.95;;;;;;;;;;6178275;23;20061;-55
2023/04/07 13:20:29;;;;;;;;;;;;;;;;;;6177301;23;20479;-71
2023/04/07 13:23:04;;;;;;;2.95;1.58;;;;;;;;;;6177142;23;19959;-74
2023/04/07 13:25:36;;;;;;;3.88;2.17;;;;;;;;;;6177813;23;20092;-73
2023/04/07 13:28:03;;;;;;;2.67;1.80;;;;;;;;;;6176738;23;20053;-74
2023/04/07 13:30:36;;;;;;;2.55;1.60;;;;;;;;;;6177120;23;20024;-60
2023/04/07 13:33:04;;;;;;;3.08;1.77;;;;;;;;;;6178435;23;20029;-57
2023/04/07 13:35:38;;;;;;;4.25;2.00;;;;;;;;;;6176308;23;20029;-56
2023/04/07 13:38:05;;;;;;;2.78;1.70;;;;;;;;;;6178041;23;20025;-55
2023/04/07 13:40:32;;;;;;;4.20;1.75;;;;;;;;;;6175590;23;20056;-55
2023/04/07 13:43:06;;;;;;;3.15;2.00;;;;;;;;;;6176197;23;20104;-56
2023/04/07 13:45:34;;;;;;;6.78;1.73;;;;;;;;;;6175480;23;20120;-57
2023/04/07 13:48:01;;;;;;;3.03;2.08;;;;;;;;;;6178030;23;20056;-56
2023/04/07 13:50:36;;;;;;;3.95;1.90;;;;;;;;;;6176811;23;20025;-49
2023/04/07 13:53:03;;;;;;;3.00;1.70;;;;;;;;;;6175850;23;20037;-49
2023/04/07 13:55:38;;;;;;;4.25;2.08;;;;;;;;;;6177016;23;20471;-49
2023/04/07 13:58:05;;;;;;;2.03;1.60;;;;;;;;;;6176708;23;20569;-51
2023/04/07 14:00:34;;;;;;;2.38;1.75;;;;;;;;;;6175695;23;20470;-59
2023/04/07 14:03:08;;;;;;;3.95;1.90;;;;;;;;;;6176460;23;20964;-50
2023/04/07 14:05:36;;;;;;;;;;;;;;;;;;6175765;23;20024;-50
2023/04/07 14:08:09;;;;;;;3.55;2.08;;;;;;;;;;6173870;23;19999;-51
2023/04/07 14:10:49;;;;;;;4.80;1.77;;;;;;;;;;6174600;23;20027;-52
2023/04/07 14:13:24;;;;;;;4.53;1.85;;;;;;;;;;6175353;23;20064;-54
2023/04/07 14:15:52;;;;;;;4.25;2.00;;;;;;;;;;6173843;23;20025;-51
2023/04/07 14:18:20;;;;;;;3.13;1.83;;;;;;;;;;6174468;23;20052;-61
2023/04/07 14:20:53;;;;;;;3.28;1.80;;;;;;;;;;6176679;23;20035;-60
2023/04/07 14:23:21;;;;;;;2.38;1.30;;;;;;;;;;6176049;23;20406;-61
2023/04/07 14:26:03;;;;;;;5.18;1.90;;;;;;;;;;6177774;23;20076;-60
2023/04/07 14:28:30;;;;;;;2.28;1.60;;;;;;;;;;6176813;23;20415;-59
2023/04/07 14:31:04;;;;;;;3.42;1.95;;;;;;;;;;6176530;23;20135;-61
2023/04/07 14:33:31;;;;;;;3.45;1.75;;;;;;;;;;6175893;23;20099;-61
2023/04/07 14:35:58;;;;;;;1.60;1.33;;;;;;;;;;6176802;23;20025;-61
2023/04/07 14:38:32;;;;;;;2.95;1.85;;;;;;;;;;6177071;23;20043;-60
2023/04/07 14:41:02;;;;;;;4.70;1.80;;;;;;;;;;6175959;23;20084;-61
2023/04/07 14:43:37;;;;;;;3.97;2.00;;;;;;;;;;6175770;23;20048;-61
2023/04/07 14:46:04;;;;;;;2.53;1.73;;;;;;;;;;6176951;23;20064;-50
2023/04/07 14:48:31;;;;;;;2.78;1.80;;;;;;;;;;6176953;23;20025;-50
2023/04/07 14:51:12;;;;;;;2.33;1.67;;;;;;;;;;6177773;23;20029;-53
2023/04/07 14:53:40;;;;;;;2.50;1.67;;;;;;;;;;6176454;23;20560;-54
2023/04/07 14:56:15;;;;;;;2.70;1.83;;;;;;;;;;6175914;23;20020;-60
2023/04/07 14:58:42;;;;;;;3.83;1.73;;;;;;;;;;6175341;23;20494;-55
2023/04/07 15:01:09;;;;;;;3.55;1.73;;;;;;;;;;6177002;23;20021;-54
2023/04/07 15:03:43;;;;;;;5.93;1.63;;;;;;;;;;6177032;23;20029;-57
2023/04/07 15:06:11;;;;;;;;;;;;;;;;;;6177979;23;20489;-56
2023/04/07 15:08:45;;;;;;;3.30;1.85;;;;;;;;;;6176912;23;19926;-56
2023/04/07 15:11:20;;;;;;;4.18;1.80;;;;;;;;;;6174760;23;20087;-56
2023/04/07 15:13:54;;;;;;;3.42;2.00;;;;;;;;;;6177869;23;20090;-59